aviador You're here:

DIAP Decoded Metar

ABIDJAN in IVORY COAST
Report Time2017-11-22 05:00:00
UTC Time2017-11-22 05:26:54
Flight Rules vfr VFR
WindVRB at 01 kt
Visibility9999 m
Phenomena:N/A
Clouds:Few 012 Hf
Expected CloudBase > 400 ft AGL from Temp-Dew spread
CeilingNone
Temp24°C (ISA +9)
Dew Point23°C (94% RH)
QNH1010 hPa
Density Alt1,545 ft
Elevation26 ft
Report Wrong Elevation
Raw Report
METAR DIAP 220500Z VRB01KT 9999 FEW012 24/23 Q1010 NOSIG=

Extra information for DIAP:More info

Metar Taf Metar & Taf Last 4 Metars F.Rules Stats Wind Profile Meteogram Temp Stats Airport Information Weather charts Add Link Nearby VenuesMetar ALERT Operation Metar Decoded Social comments